Terminal Aerodrome Forecast
Issued by NWS Sterling, VA

Current Version | Previous Version | Graphics & Text | Print | Product List | Glossary On
Versions: 1 2 3 4 5 6 7 8 9 10 11 12 13 14 15 16 17 18 19 20 21
684
FTUS41 KLWX 151449 AAA
TAFMRB
TAF AMD
KMRB 151449Z 1515/1612 18006KT P6SM SCT008
     FM151700 20009KT P6SM FEW130
     FM160000 22008KT P6SM BKN100
     FM160300 29010KT P6SM OVC035
     FM160600 30010KT P6SM BKN035
     FM160900 31010KT P6SM SCT045=

USA.gov is the U.S. government's official web portal to all federal, state and local government web resources and services.